createdAt,value
2019-01-11T00:02:18.196Z,61.47
2019-01-11T00:04:47.633Z,71.30
2019-01-11T00:07:17.125Z,69.37
2019-01-11T00:09:46.577Z,80.67
2019-01-11T00:12:16.029Z,71.27
2019-01-11T00:14:45.517Z,75.47
2019-01-11T00:17:14.973Z,75.70
2019-01-11T00:19:44.449Z,70.43
2019-01-11T00:22:13.971Z,75.80
2019-01-11T00:24:43.425Z,69.33
2019-01-11T00:27:12.873Z,65.23
2019-01-11T00:29:42.360Z,70.07
2019-01-11T00:32:11.822Z,69.27
2019-01-11T00:34:41.263Z,65.97
2019-01-11T00:37:10.742Z,79.73
2019-01-11T00:39:40.243Z,77.40
2019-01-11T00:42:09.693Z,74.77
2019-01-11T00:44:39.200Z,74.63
2019-01-11T00:47:08.649Z,74.57
2019-01-11T00:49:38.107Z,66.43
2019-01-11T00:52:07.573Z,81.03
2019-01-11T00:54:37.009Z,68.67
2019-01-11T00:57:06.433Z,65.90
2019-01-11T00:59:35.915Z,73.07
2019-01-11T01:02:05.549Z,68.23
2019-01-11T01:04:34.993Z,67.17
2019-01-11T01:07:04.553Z,68.97
2019-01-11T01:09:34.030Z,74.20
2019-01-11T01:12:03.884Z,68.70
2019-01-11T01:14:33.363Z,82.97
2019-01-11T01:17:03.246Z,71.97
2019-01-11T01:19:32.692Z,79.43
2019-01-11T01:22:02.138Z,62.97
2019-01-11T01:24:31.597Z,62.30
2019-01-11T01:27:01.090Z,59.43
2019-01-11T01:29:30.537Z,65.53
2019-01-11T01:31:59.966Z,81.30
2019-01-11T01:34:29.432Z,65.03
2019-01-11T01:36:58.910Z,71.90
2019-01-11T01:39:28.384Z,62.27
2019-01-11T01:41:57.868Z,70.87
2019-01-11T01:44:27.306Z,63.63
2019-01-11T01:46:56.756Z,74.00
2019-01-11T01:49:26.605Z,66.43
2019-01-11T01:51:56.330Z,73.87
2019-01-11T01:54:25.754Z,76.83
2019-01-11T01:56:55.263Z,63.07
2019-01-11T01:59:24.699Z,65.50
2019-01-11T02:01:54.132Z,65.17
2019-01-11T02:04:23.634Z,68.53
2019-01-11T02:06:53.071Z,73.00
2019-01-11T02:09:22.508Z,63.67
2019-01-11T02:11:52.024Z,64.93
2019-01-11T02:14:21.461Z,76.60
2019-01-11T02:16:50.908Z,72.60
2019-01-11T02:19:20.499Z,70.07
2019-01-11T02:21:49.934Z,74.73
2019-01-11T02:24:19.404Z,67.10
2019-01-11T02:26:48.916Z,75.20
2019-01-11T02:29:18.334Z,64.20
2019-01-11T02:31:47.763Z,76.37
2019-01-11T02:34:17.251Z,81.83
2019-01-11T02:36:46.719Z,75.03
2019-01-11T02:39:16.160Z,68.43
2019-01-11T02:41:45.652Z,77.47
2019-01-11T02:44:15.065Z,92.63
2019-01-11T02:46:44.496Z,81.30
2019-01-11T02:49:13.956Z,84.40
2019-01-11T02:51:43.392Z,69.60
2019-01-11T02:54:12.826Z,64.10
2019-01-11T02:56:42.310Z,69.47
2019-01-11T02:59:11.825Z,67.37
2019-01-11T03:01:41.245Z,76.27
2019-01-11T03:04:10.749Z,68.30
2019-01-11T03:06:40.155Z,69.27
2019-01-11T03:09:09.861Z,70.63
2019-01-11T03:11:39.318Z,70.70
2019-01-11T03:14:08.798Z,65.33
2019-01-11T03:16:38.237Z,66.47
2019-01-11T03:19:07.660Z,63.50
2019-01-11T03:21:37.116Z,75.50
2019-01-11T03:24:06.666Z,56.10
2019-01-11T03:26:36.138Z,64.87
2019-01-11T03:29:05.700Z,77.53
2019-01-11T03:31:38.194Z,71.37
2019-01-11T03:34:07.626Z,61.50
2019-01-11T03:36:37.111Z,70.60
2019-01-11T03:39:08.779Z,63.37
2019-01-11T03:41:52.453Z,78.20
2019-01-11T03:44:21.881Z,67.13
2019-01-11T03:46:51.332Z,66.83
2019-01-11T03:49:20.819Z,62.73
2019-01-11T03:51:50.261Z,73.90
2019-01-11T03:54:19.690Z,70.53
2019-01-11T03:56:49.173Z,70.80
2019-01-11T03:59:18.608Z,66.90
2019-01-11T04:01:48.063Z,66.90
2019-01-11T04:04:17.589Z,77.67
2019-01-11T04:06:47.039Z,64.47
2019-01-11T04:09:16.494Z,63.23
2019-01-11T04:11:45.939Z,63.73
2019-01-11T04:14:15.423Z,62.50
2019-01-11T04:16:45.700Z,68.67
2019-01-11T04:19:16.202Z,74.00
2019-01-11T04:22:10.736Z,76.40
2019-01-11T04:24:59.397Z,79.27
2019-01-11T04:27:28.887Z,72.47
2019-01-11T04:30:01.899Z,72.23
2019-01-11T04:32:31.360Z,65.20
2019-01-11T04:35:00.851Z,66.53
2019-01-11T04:37:30.388Z,70.47
2019-01-11T04:39:59.926Z,55.67
2019-01-11T04:42:29.421Z,58.63
2019-01-11T04:44:58.878Z,65.43
2019-01-11T04:47:30.427Z,62.87
2019-01-11T04:49:59.908Z,57.40
2019-01-11T04:52:29.348Z,65.00
2019-01-11T04:54:58.813Z,73.03
2019-01-11T04:57:28.316Z,66.33
2019-01-11T04:59:57.754Z,74.70
2019-01-11T05:02:27.208Z,71.73
2019-01-11T05:04:56.684Z,76.17
2019-01-11T05:07:26.122Z,71.33
2019-01-11T05:09:55.572Z,68.80
2019-01-11T05:12:25.088Z,69.07
2019-01-11T05:14:54.526Z,70.53
2019-01-11T05:17:24.004Z,73.50
2019-01-11T05:19:53.485Z,80.57
2019-01-11T05:22:22.934Z,74.17
2019-01-11T05:24:52.360Z,74.33
2019-01-11T05:27:21.843Z,84.07
2019-01-11T05:29:51.308Z,65.73
2019-01-11T05:32:20.739Z,85.43
2019-01-11T05:34:50.225Z,75.33
2019-01-11T05:37:19.664Z,88.93
2019-01-11T05:39:49.118Z,70.37
2019-01-11T05:42:18.621Z,65.17
2019-01-11T05:44:48.070Z,74.47
2019-01-11T05:47:17.535Z,71.20
2019-01-11T05:49:47.059Z,79.37
2019-01-11T05:52:16.551Z,72.50
2019-01-11T05:54:45.990Z,64.67
2019-01-11T05:57:15.483Z,74.13
2019-01-11T05:59:44.942Z,83.77
2019-01-11T06:02:14.393Z,74.47
2019-01-11T06:04:44.613Z,86.97
2019-01-11T06:07:45.357Z,72.93
2019-01-11T06:10:16.128Z,79.13
2019-01-11T06:12:45.600Z,83.07
2019-01-11T06:15:15.032Z,68.93
2019-01-11T06:17:44.557Z,84.60
2019-01-11T06:20:16.025Z,75.90
2019-01-11T06:22:45.620Z,90.40
2019-01-11T06:25:15.086Z,76.67
2019-01-11T06:27:44.545Z,72.87
2019-01-11T06:30:15.495Z,80.63
2019-01-11T06:32:44.966Z,64.00
2019-01-11T06:35:14.421Z,73.17
2019-01-11T06:37:43.859Z,61.10
2019-01-11T06:40:13.567Z,61.60
2019-01-11T06:42:43.005Z,66.53
2019-01-11T06:45:12.584Z,76.57
2019-01-11T06:47:42.233Z,73.77
2019-01-11T06:50:13.577Z,68.33
2019-01-11T06:52:43.041Z,76.97
2019-01-11T06:55:31.573Z,68.03
2019-01-11T06:58:01.055Z,87.47
2019-01-11T07:00:30.531Z,63.50
2019-01-11T07:03:00.022Z,77.17
2019-01-11T07:05:31.578Z,80.50
2019-01-11T07:08:03.275Z,77.20
2019-01-11T07:10:33.467Z,75.30
2019-01-11T07:13:05.443Z,75.97
2019-01-11T07:15:37.357Z,70.47
2019-01-11T07:18:07.240Z,71.90
2019-01-11T07:20:42.845Z,72.83
2019-01-11T07:23:09.114Z,66.93
2019-01-11T07:25:47.789Z,57.40
2019-01-11T07:28:18.434Z,66.30
2019-01-11T07:31:04.304Z,68.90
2019-01-11T07:33:33.859Z,54.30
2019-01-11T07:36:25.016Z,80.93
2019-01-11T07:38:54.552Z,71.37
2019-01-11T07:41:24.172Z,78.60
2019-01-11T07:43:53.693Z,79.70
2019-01-11T07:46:23.295Z,67.47
2019-01-11T07:48:52.796Z,65.77
2019-01-11T07:51:22.266Z,79.53
2019-01-11T07:53:51.768Z,75.50
2019-01-11T07:56:21.306Z,83.17
2019-01-11T07:58:50.878Z,72.53
2019-01-11T08:01:20.342Z,77.80
2019-01-11T08:03:49.850Z,84.07
2019-01-11T08:06:19.782Z,72.03
2019-01-11T08:08:49.279Z,83.87
2019-01-11T08:11:18.757Z,80.27
2019-01-11T08:13:48.314Z,72.93
2019-01-11T08:16:17.806Z,81.47
2019-01-11T08:18:47.252Z,79.20
2019-01-11T08:21:16.768Z,77.80
2019-01-11T08:23:46.253Z,92.43
2019-01-11T08:26:15.724Z,87.43
2019-01-11T08:28:45.209Z,79.77
2019-01-11T08:31:14.668Z,85.17
2019-01-11T08:33:44.121Z,89.47
2019-01-11T08:36:13.625Z,91.43
2019-01-11T08:38:43.132Z,105.97
2019-01-11T08:41:12.590Z,90.07
2019-01-11T08:43:42.084Z,91.10
2019-01-11T08:46:11.539Z,95.63
2019-01-11T08:48:41.007Z,76.17
2019-01-11T08:51:10.634Z,80.70
2019-01-11T08:53:40.093Z,93.97
2019-01-11T08:56:09.746Z,68.30
2019-01-11T08:58:40.282Z,73.03
2019-01-11T09:01:09.803Z,78.20
2019-01-11T09:03:39.306Z,73.80
2019-01-11T09:06:09.225Z,80.50
2019-01-11T09:08:38.785Z,79.97
2019-01-11T09:11:08.298Z,78.07
2019-01-11T09:13:37.866Z,91.50
2019-01-11T09:16:07.488Z,89.27
2019-01-11T09:18:45.718Z,86.97
2019-01-11T09:21:15.211Z,74.33
2019-01-11T09:23:44.869Z,74.00
2019-01-11T09:26:14.423Z,75.23
2019-01-11T09:28:43.916Z,84.63
2019-01-11T09:31:14.629Z,101.73
2019-01-11T09:33:44.821Z,100.03
2019-01-11T09:36:14.376Z,91.80
2019-01-11T09:38:43.854Z,88.03
2019-01-11T09:41:13.412Z,91.43
2019-01-11T09:43:42.901Z,88.50
2019-01-11T09:46:12.377Z,95.90
2019-01-11T09:48:42.198Z,94.40
2019-01-11T09:51:15.716Z,100.33
2019-01-11T09:53:42.837Z,94.50
2019-01-11T09:56:12.354Z,97.63
2019-01-11T09:58:41.875Z,94.03
2019-01-11T10:01:11.376Z,84.30
2019-01-11T10:03:40.927Z,81.93
2019-01-11T10:06:10.408Z,80.67
2019-01-11T10:08:39.903Z,96.03
2019-01-11T10:11:09.443Z,88.47
2019-01-11T10:13:38.929Z,78.23
2019-01-11T10:16:08.405Z,67.70
2019-01-11T10:18:38.642Z,79.97
2019-01-11T10:21:08.096Z,90.83
2019-01-11T10:23:37.549Z,89.83
2019-01-11T10:26:07.393Z,84.73
2019-01-11T10:28:36.857Z,83.50
2019-01-11T10:31:06.344Z,82.83
2019-01-11T10:33:36.272Z,78.73
2019-01-11T10:36:06.041Z,78.23
2019-01-11T10:38:35.503Z,79.63
2019-01-11T10:41:05.041Z,83.00
2019-01-11T10:43:34.506Z,82.97
2019-01-11T10:46:10.383Z,86.60
2019-01-11T10:48:39.854Z,105.43
2019-01-11T10:51:09.322Z,80.57
2019-01-11T10:53:38.749Z,86.40
2019-01-11T10:56:08.222Z,87.77
2019-01-11T10:58:37.736Z,90.93
2019-01-11T11:01:08.678Z,89.63
2019-01-11T11:03:38.166Z,84.70
2019-01-11T11:06:07.652Z,87.47
2019-01-11T11:08:37.096Z,83.33
2019-01-11T11:11:06.596Z,89.00
2019-01-11T11:13:36.050Z,98.97
2019-01-11T11:16:05.533Z,106.57
2019-01-11T11:18:35.056Z,101.03
2019-01-11T11:21:04.515Z,89.57
2019-01-11T11:23:33.990Z,104.60
2019-01-11T11:26:03.483Z,99.40
2019-01-11T11:28:32.958Z,103.23
2019-01-11T11:31:03.533Z,100.77
2019-01-11T11:33:33.030Z,110.23
2019-01-11T11:36:02.938Z,93.23
2019-01-11T11:38:32.431Z,107.70
2019-01-11T11:41:01.950Z,86.40
2019-01-11T11:43:33.039Z,113.17
2019-01-11T11:46:02.555Z,92.03
2019-01-11T11:48:32.067Z,105.73
2019-01-11T11:51:01.514Z,103.60
2019-01-11T11:53:30.968Z,115.53
2019-01-11T11:56:00.498Z,105.77
2019-01-11T11:58:30.036Z,102.47
2019-01-11T12:00:59.550Z,105.63
2019-01-11T12:03:29.353Z,98.40
2019-01-11T12:05:58.838Z,108.53
2019-01-11T12:08:29.288Z,102.63
2019-01-11T12:10:58.849Z,107.30
2019-01-11T12:13:29.294Z,110.40
2019-01-11T12:16:00.067Z,101.13
2019-01-11T12:18:29.517Z,100.53
2019-01-11T12:20:58.970Z,93.53
2019-01-11T12:23:28.487Z,113.20
2019-01-11T12:25:58.156Z,111.30
2019-01-11T12:28:27.651Z,109.00
2019-01-11T12:30:57.162Z,103.60
2019-01-11T12:33:26.630Z,98.93
2019-01-11T12:35:56.118Z,102.33
2019-01-11T12:38:25.613Z,102.70
2019-01-11T12:40:55.077Z,96.50
2019-01-11T12:43:24.558Z,95.30
2019-01-11T12:45:54.078Z,111.43
2019-01-11T12:48:23.594Z,104.93
2019-01-11T12:50:53.130Z,94.23
2019-01-11T12:53:22.678Z,112.70
2019-01-11T12:55:52.581Z,98.70
2019-01-11T12:58:22.080Z,104.40
2019-01-11T13:00:51.645Z,97.37
2019-01-11T13:03:24.203Z,91.10
2019-01-11T13:05:54.715Z,95.37
2019-01-11T13:08:25.961Z,91.47
2019-01-11T13:10:55.645Z,96.27
2019-01-11T13:13:25.253Z,113.17
2019-01-11T13:15:54.875Z,103.80
2019-01-11T13:18:27.343Z,97.97
2019-01-11T13:20:56.801Z,99.97
2019-01-11T13:23:29.460Z,100.63
2019-01-11T13:25:59.559Z,86.57
2019-01-11T13:28:29.021Z,97.00
2019-01-11T13:30:58.738Z,96.93
2019-01-11T13:33:28.255Z,106.67
2019-01-11T13:35:57.750Z,103.63
2019-01-11T13:38:27.271Z,108.57
2019-01-11T13:41:12.173Z,102.70
2019-01-11T13:43:41.810Z,106.20
2019-01-11T13:46:11.499Z,108.73
2019-01-11T13:48:41.207Z,105.07
2019-01-11T13:51:10.858Z,116.17
2019-01-11T13:53:40.417Z,107.77
2019-01-11T13:56:09.916Z,110.40
2019-01-11T13:58:39.561Z,118.83
2019-01-11T14:01:12.157Z,111.43
2019-01-11T14:03:41.656Z,114.87
2019-01-11T14:06:11.429Z,123.73
2019-01-11T14:08:40.945Z,114.60
2019-01-11T14:11:10.430Z,109.97
2019-01-11T14:13:39.949Z,113.50
2019-01-11T14:16:09.621Z,129.93
2019-01-11T14:18:43.644Z,106.10
2019-01-11T14:21:13.958Z,116.10
2019-01-11T14:23:43.412Z,119.77
2019-01-11T14:26:12.869Z,121.10
2019-01-11T14:28:42.413Z,119.00
2019-01-11T14:31:11.890Z,116.67
2019-01-11T14:33:41.690Z,116.97
2019-01-11T14:36:11.933Z,131.33
2019-01-11T14:38:42.189Z,126.87
2019-01-11T14:41:12.222Z,117.43
2019-01-11T14:43:41.667Z,123.47
2019-01-11T14:46:13.744Z,115.90
2019-01-11T14:48:42.344Z,111.30
2019-01-11T14:51:11.809Z,103.73
2019-01-11T14:53:41.269Z,111.47
2019-01-11T14:56:11.069Z,123.53
2019-01-11T14:58:40.542Z,117.87
2019-01-11T15:01:10.068Z,113.93
2019-01-11T15:03:39.602Z,115.63
2019-01-11T15:06:09.202Z,122.60
2019-01-11T15:08:38.716Z,127.67
2019-01-11T15:11:08.301Z,118.50
2019-01-11T15:13:38.084Z,132.90
2019-01-11T15:16:07.496Z,122.27
2019-01-11T15:18:37.020Z,107.33
2019-01-11T15:21:06.517Z,128.17
2019-01-11T15:23:35.974Z,114.67
2019-01-11T15:26:05.721Z,121.40
2019-01-11T15:28:35.234Z,106.50
2019-01-11T15:31:04.721Z,116.00
2019-01-11T15:33:34.196Z,120.93
2019-01-11T15:36:03.710Z,113.53
2019-01-11T15:38:33.175Z,107.53
2019-01-11T15:41:02.673Z,116.17
2019-01-11T15:43:32.185Z,123.47
2019-01-11T15:46:06.893Z,130.40
2019-01-11T15:48:51.768Z,129.27
2019-01-11T15:51:40.326Z,105.60
2019-01-11T15:54:09.795Z,122.33
2019-01-11T15:56:41.993Z,115.43
2019-01-11T15:59:11.532Z,113.53
2019-01-11T16:01:41.889Z,117.50
2019-01-11T16:04:30.435Z,134.20
2019-01-11T16:06:59.919Z,118.03
2019-01-11T16:10:03.390Z,98.33
2019-01-11T16:13:14.125Z,114.07
2019-01-11T16:16:15.557Z,102.53
2019-01-11T16:18:45.094Z,107.37
2019-01-11T16:21:16.533Z,100.00
2019-01-11T16:23:48.677Z,99.97
2019-01-11T16:26:19.557Z,90.87
2019-01-11T16:28:49.429Z,97.57
2019-01-11T16:31:19.440Z,109.80
2019-01-11T16:33:49.367Z,89.17
2019-01-11T16:36:18.822Z,98.07
2019-01-11T16:38:48.430Z,102.00
2019-01-11T16:41:18.045Z,111.43
2019-01-11T16:43:47.536Z,87.70
2019-01-11T16:46:18.512Z,85.07
2019-01-11T16:48:48.049Z,96.60
2019-01-11T16:51:17.540Z,101.03
2019-01-11T16:53:47.282Z,100.17
2019-01-11T16:56:16.715Z,92.03
2019-01-11T16:58:46.169Z,99.90
2019-01-11T17:01:15.690Z,100.27
2019-01-11T17:03:45.184Z,98.73
2019-01-11T17:06:15.422Z,96.30
2019-01-11T17:08:44.952Z,100.17
2019-01-11T17:11:14.476Z,119.60
2019-01-11T17:13:44.002Z,103.57
2019-01-11T17:16:13.671Z,95.53
2019-01-11T17:18:43.173Z,95.60
2019-01-11T17:21:12.672Z,101.67
2019-01-11T17:23:42.244Z,102.87
2019-01-11T17:26:11.823Z,108.23
2019-01-11T17:28:41.334Z,97.60
2019-01-11T17:31:10.895Z,107.63
2019-01-11T17:33:40.337Z,97.40
2019-01-11T17:36:09.831Z,99.53
2019-01-11T17:38:39.338Z,106.73
2019-01-11T17:41:08.790Z,81.77
2019-01-11T17:43:38.297Z,93.47
2019-01-11T17:46:07.818Z,95.03
2019-01-11T17:48:37.281Z,91.43
2019-01-11T17:51:06.765Z,104.23
2019-01-11T17:53:36.286Z,106.47
2019-01-11T17:56:05.977Z,103.27
2019-01-11T17:58:35.417Z,94.03
2019-01-11T18:01:05.058Z,102.93
2019-01-11T18:03:34.528Z,96.07
2019-01-11T18:06:04.012Z,85.50
2019-01-11T18:08:35.182Z,102.03
2019-01-11T18:11:04.747Z,91.87
2019-01-11T18:13:34.213Z,85.97
2019-01-11T18:16:03.686Z,99.43
2019-01-11T18:18:33.118Z,99.03
2019-01-11T18:21:02.554Z,83.10
2019-01-11T18:23:32.007Z,87.67
2019-01-11T18:26:01.468Z,81.37
2019-01-11T18:28:30.939Z,86.97
2019-01-11T18:31:00.381Z,85.73
2019-01-11T18:33:29.814Z,71.60
2019-01-11T18:35:59.301Z,74.37
2019-01-11T18:38:28.736Z,78.87
2019-01-11T18:40:58.218Z,69.53
2019-01-11T18:43:27.705Z,67.77
2019-01-11T18:45:57.174Z,77.50
2019-01-11T18:48:26.628Z,83.23
2019-01-11T18:50:56.095Z,76.40
2019-01-11T18:53:25.545Z,88.10
2019-01-11T18:55:55.009Z,76.33
2019-01-11T18:58:24.512Z,72.60
2019-01-11T19:00:53.963Z,79.83
2019-01-11T19:03:23.560Z,80.57
2019-01-11T19:05:53.185Z,76.60
2019-01-11T19:08:22.639Z,78.77
2019-01-11T19:10:52.109Z,72.27
2019-01-11T19:13:21.621Z,76.30
2019-01-11T19:15:51.075Z,70.67
2019-01-11T19:18:20.647Z,79.80
2019-01-11T19:20:50.209Z,64.13
2019-01-11T19:23:20.584Z,73.50
2019-01-11T19:25:50.245Z,73.03
2019-01-11T19:28:19.735Z,86.43
2019-01-11T19:30:49.221Z,72.80
2019-01-11T19:33:18.685Z,71.07
2019-01-11T19:35:48.371Z,81.10
2019-01-11T19:38:17.810Z,63.67
2019-01-11T19:40:47.332Z,65.87
2019-01-11T19:43:16.890Z,71.50
2019-01-11T19:45:46.358Z,67.13
2019-01-11T19:48:15.863Z,66.10
2019-01-11T19:50:45.569Z,67.30
2019-01-11T19:53:15.293Z,77.67
2019-01-11T19:55:44.885Z,76.97
2019-01-11T19:58:14.349Z,73.57
2019-01-11T20:00:44.007Z,64.73
2019-01-11T20:03:13.547Z,70.77
2019-01-11T20:05:43.034Z,83.13
2019-01-11T20:08:14.111Z,82.17
2019-01-11T20:10:43.706Z,69.17
2019-01-11T20:13:13.508Z,68.40
2019-01-11T20:15:42.974Z,75.87
2019-01-11T20:18:12.493Z,63.67
2019-01-11T20:20:41.949Z,57.40
2019-01-11T20:23:11.431Z,61.47
2019-01-11T20:25:40.995Z,59.03
2019-01-11T20:28:10.487Z,60.50
2019-01-11T20:30:39.929Z,60.13
2019-01-11T20:33:09.470Z,58.07
2019-01-11T20:35:38.928Z,57.83
2019-01-11T20:38:08.404Z,66.90
2019-01-11T20:40:37.933Z,57.63
2019-01-11T20:43:07.429Z,63.40
2019-01-11T20:45:36.902Z,59.03
2019-01-11T20:48:06.505Z,59.80
2019-01-11T20:50:36.292Z,54.20
2019-01-11T20:53:05.778Z,56.60
2019-01-11T20:55:35.291Z,62.20
2019-01-11T20:58:05.082Z,70.47
2019-01-11T21:00:35.582Z,59.37
2019-01-11T21:03:07.113Z,61.43
2019-01-11T21:05:36.750Z,69.27
2019-01-11T21:08:06.792Z,70.17
2019-01-11T21:10:36.381Z,58.80
2019-01-11T21:13:06.565Z,55.40
2019-01-11T21:15:36.089Z,52.67
2019-01-11T21:18:06.522Z,51.43
2019-01-11T21:20:36.031Z,53.87
2019-01-11T21:23:05.860Z,53.17
2019-01-11T21:25:35.561Z,56.70
2019-01-11T21:28:05.591Z,53.43
2019-01-11T21:30:35.307Z,52.10
2019-01-11T21:33:04.789Z,52.97
2019-01-11T21:35:34.304Z,70.13
2019-01-11T21:38:03.936Z,79.80
2019-01-11T21:40:33.487Z,74.13
2019-01-11T21:43:03.080Z,70.10
2019-01-11T21:45:32.636Z,91.10
2019-01-11T21:48:02.075Z,82.77
2019-01-11T21:50:31.584Z,70.63
2019-01-11T21:53:01.091Z,48.47
2019-01-11T21:55:30.573Z,55.73
2019-01-11T21:58:00.082Z,56.90
2019-01-11T22:00:35.763Z,51.73
2019-01-11T22:03:06.408Z,55.13
2019-01-11T22:05:35.861Z,50.27
2019-01-11T22:08:05.628Z,48.67
2019-01-11T22:10:35.117Z,48.00
2019-01-11T22:13:04.577Z,43.53
2019-01-11T22:15:34.084Z,52.10
2019-01-11T22:18:04.730Z,54.80
2019-01-11T22:20:34.223Z,49.03
2019-01-11T22:23:23.837Z,50.43
2019-01-11T22:25:47.669Z,53.87
2019-01-11T22:28:17.237Z,51.80
2019-01-11T22:30:46.713Z,53.00
2019-01-11T22:33:16.215Z,54.20
2019-01-11T22:35:46.342Z,46.47
2019-01-11T22:38:15.945Z,61.00
2019-01-11T22:40:45.440Z,60.57
2019-01-11T22:43:14.912Z,59.90
2019-01-11T22:45:44.780Z,62.13
2019-01-11T22:48:14.324Z,51.87
2019-01-11T22:50:43.797Z,58.30
2019-01-11T22:53:13.469Z,51.00
2019-01-11T22:55:42.979Z,60.77
2019-01-11T22:58:12.846Z,60.53
2019-01-11T23:00:57.091Z,56.27
2019-01-11T23:03:40.139Z,49.30
2019-01-11T23:06:30.668Z,45.70
2019-01-11T23:09:00.415Z,51.53
2019-01-11T23:12:19.801Z,50.50
2019-01-11T23:14:49.664Z,49.00
2019-01-11T23:17:45.354Z,48.07
2019-01-11T23:20:15.316Z,48.43
2019-01-11T23:22:44.813Z,55.27
2019-01-11T23:25:14.274Z,59.50
2019-01-11T23:27:43.746Z,56.53
2019-01-11T23:30:15.963Z,59.20
2019-01-11T23:32:45.446Z,57.13
2019-01-11T23:35:14.901Z,54.97
2019-01-11T23:37:44.398Z,55.13
2019-01-11T23:40:16.031Z,57.73
2019-01-11T23:42:45.518Z,52.63
2019-01-11T23:45:15.478Z,51.27
2019-01-11T23:47:44.988Z,58.73
2019-01-11T23:50:16.568Z,49.00
2019-01-11T23:52:46.276Z,43.03
2019-01-11T23:55:15.928Z,47.47
2019-01-11T23:57:45.396Z,43.87
